createdAt,value
2018-09-09T00:00:51.477Z,65.00
2018-09-09T00:03:20.003Z,65.00
2018-09-09T00:05:48.549Z,64.90
2018-09-09T00:08:17.085Z,64.70
2018-09-09T00:10:45.646Z,64.90
2018-09-09T00:13:14.174Z,64.90
2018-09-09T00:15:42.738Z,65.10
2018-09-09T00:18:11.272Z,65.10
2018-09-09T00:20:39.840Z,65.20
2018-09-09T00:23:08.381Z,65.20
2018-09-09T00:25:37.169Z,65.20
2018-09-09T00:28:06.149Z,65.00
2018-09-09T00:30:34.980Z,64.80
2018-09-09T00:33:03.510Z,64.90
2018-09-09T00:35:32.185Z,64.70
2018-09-09T00:38:00.705Z,64.90
2018-09-09T00:40:29.218Z,64.70
2018-09-09T00:42:57.708Z,64.70
2018-09-09T00:45:26.242Z,64.70
2018-09-09T00:47:54.741Z,65.30
2018-09-09T00:50:28.535Z,64.60
2018-09-09T00:53:02.331Z,64.80
2018-09-09T00:55:31.247Z,64.90
2018-09-09T00:57:59.747Z,65.00
2018-09-09T01:00:33.740Z,65.10
2018-09-09T01:03:02.243Z,64.90
2018-09-09T01:05:30.741Z,65.00
2018-09-09T01:07:59.272Z,65.00
2018-09-09T01:10:27.776Z,65.10
2018-09-09T01:12:56.325Z,65.20
2018-09-09T01:15:24.801Z,65.10
2018-09-09T01:17:53.314Z,65.20
2018-09-09T01:20:22.202Z,65.20
2018-09-09T01:22:50.721Z,65.10
2018-09-09T01:25:19.310Z,65.10
2018-09-09T01:27:47.809Z,65.00
2018-09-09T01:30:16.301Z,65.80
2018-09-09T01:32:44.883Z,65.20
2018-09-09T01:35:13.544Z,65.20
2018-09-09T01:37:42.086Z,65.20
2018-09-09T01:40:10.749Z,65.20
2018-09-09T01:42:39.426Z,65.10
2018-09-09T01:45:07.974Z,65.00
2018-09-09T01:47:36.525Z,64.90
2018-09-09T01:50:05.122Z,65.00
2018-09-09T01:52:33.682Z,64.90
2018-09-09T01:55:02.256Z,65.00
2018-09-09T01:57:30.814Z,65.00
2018-09-09T01:59:59.341Z,65.10
2018-09-09T02:02:27.889Z,65.20
2018-09-09T02:04:56.410Z,65.30
2018-09-09T02:07:25.085Z,65.20
2018-09-09T02:09:53.616Z,65.30
2018-09-09T02:12:22.159Z,65.40
2018-09-09T02:14:50.691Z,65.50
2018-09-09T02:17:20.148Z,65.50
2018-09-09T02:19:48.665Z,65.70
2018-09-09T02:22:17.220Z,65.70
2018-09-09T02:24:45.738Z,65.70
2018-09-09T02:27:14.350Z,65.70
2018-09-09T02:29:42.900Z,65.70
2018-09-09T02:32:11.483Z,66.60
2018-09-09T02:34:40.006Z,65.80
2018-09-09T02:37:08.650Z,65.90
2018-09-09T02:39:37.216Z,66.00
2018-09-09T02:42:05.754Z,66.90
2018-09-09T02:44:34.359Z,66.00
2018-09-09T02:47:03.073Z,65.90
2018-09-09T02:49:31.613Z,66.00
2018-09-09T02:52:00.142Z,66.10
2018-09-09T02:54:28.682Z,66.10
2018-09-09T02:56:57.208Z,66.20
2018-09-09T02:59:25.788Z,66.10
2018-09-09T03:01:54.328Z,66.00
2018-09-09T03:04:22.878Z,66.00
2018-09-09T03:06:51.414Z,66.00
2018-09-09T03:09:19.986Z,66.30
2018-09-09T03:11:48.513Z,65.90
2018-09-09T03:14:17.057Z,65.90
2018-09-09T03:16:45.579Z,66.00
2018-09-09T03:19:14.140Z,65.90
2018-09-09T03:21:42.668Z,65.90
2018-09-09T03:24:11.215Z,65.80
2018-09-09T03:26:39.729Z,65.80
2018-09-09T03:29:08.283Z,65.70
2018-09-09T03:31:36.770Z,65.80
2018-09-09T03:34:05.594Z,65.70
2018-09-09T03:36:34.090Z,65.80
2018-09-09T03:39:02.677Z,66.00
2018-09-09T03:41:31.150Z,66.00
2018-09-09T03:43:59.650Z,66.10
2018-09-09T03:46:28.144Z,66.20
2018-09-09T03:48:56.654Z,66.30
2018-09-09T03:51:25.129Z,66.40
2018-09-09T03:53:53.627Z,66.40
2018-09-09T03:56:22.098Z,66.50
2018-09-09T03:58:50.606Z,66.60
2018-09-09T04:01:19.102Z,66.70
2018-09-09T04:03:47.741Z,66.70
2018-09-09T04:06:16.306Z,66.80
2018-09-09T04:08:45.004Z,66.80
2018-09-09T04:11:13.500Z,66.90
2018-09-09T04:13:43.136Z,66.90
2018-09-09T04:16:12.803Z,67.00
2018-09-09T04:18:42.549Z,67.00
2018-09-09T04:21:11.041Z,67.00
2018-09-09T04:23:39.790Z,67.10
2018-09-09T04:26:08.293Z,67.70
2018-09-09T04:28:36.793Z,67.00
2018-09-09T04:31:05.334Z,67.00
2018-09-09T04:33:33.836Z,67.00
2018-09-09T04:36:02.389Z,67.20
2018-09-09T04:38:30.880Z,67.30
2018-09-09T04:40:59.401Z,67.30
2018-09-09T04:43:27.866Z,67.30
2018-09-09T04:45:56.375Z,67.50
2018-09-09T04:48:24.866Z,67.60
2018-09-09T04:50:53.381Z,67.80
2018-09-09T04:53:21.894Z,67.80
2018-09-09T04:55:50.414Z,67.70
2018-09-09T04:58:18.891Z,68.00
2018-09-09T05:00:47.410Z,68.20
2018-09-09T05:03:15.986Z,68.30
2018-09-09T05:05:44.506Z,68.60
2018-09-09T05:08:12.987Z,68.70
2018-09-09T05:10:41.513Z,68.80
2018-09-09T05:13:10.016Z,68.90
2018-09-09T05:15:38.526Z,69.00
2018-09-09T05:18:07.021Z,69.10
2018-09-09T05:20:35.553Z,69.60
2018-09-09T05:23:04.085Z,69.50
2018-09-09T05:25:32.602Z,69.70
2018-09-09T05:28:01.087Z,69.90
2018-09-09T05:30:29.610Z,70.10
2018-09-09T05:32:58.170Z,70.20
2018-09-09T05:35:26.718Z,70.30
2018-09-09T05:37:55.239Z,70.60
2018-09-09T05:40:23.789Z,70.70
2018-09-09T05:42:52.297Z,71.00
2018-09-09T05:45:20.835Z,71.10
2018-09-09T05:47:49.365Z,71.40
2018-09-09T05:50:18.253Z,71.50
2018-09-09T05:52:46.810Z,71.60
2018-09-09T05:55:15.443Z,71.80
2018-09-09T05:57:44.003Z,72.80
2018-09-09T06:00:12.714Z,72.10
2018-09-09T06:02:41.306Z,72.40
2018-09-09T06:05:09.866Z,72.30
2018-09-09T06:07:38.457Z,72.70
2018-09-09T06:10:07.055Z,72.80
2018-09-09T06:12:35.586Z,73.20
2018-09-09T06:15:04.181Z,73.50
2018-09-09T06:17:32.734Z,73.50
2018-09-09T06:20:01.258Z,73.90
2018-09-09T06:22:29.807Z,74.00
2018-09-09T06:24:58.570Z,74.30
2018-09-09T06:27:27.123Z,74.40
2018-09-09T06:29:55.691Z,74.50
2018-09-09T06:32:24.365Z,74.90
2018-09-09T06:34:52.986Z,75.00
2018-09-09T06:37:21.506Z,75.10
2018-09-09T06:39:49.981Z,75.40
2018-09-09T06:42:18.493Z,75.40
2018-09-09T06:44:46.992Z,75.70
2018-09-09T06:47:15.506Z,75.90
2018-09-09T06:49:43.992Z,76.00
2018-09-09T06:52:12.491Z,76.10
2018-09-09T06:54:40.982Z,76.00
2018-09-09T06:57:09.490Z,76.30
2018-09-09T06:59:37.984Z,76.30
2018-09-09T07:02:06.672Z,76.50
2018-09-09T07:04:35.162Z,76.50
2018-09-09T07:07:03.693Z,76.70
2018-09-09T07:09:32.185Z,76.80
2018-09-09T07:12:00.989Z,76.70
2018-09-09T07:14:29.446Z,76.90
2018-09-09T07:16:57.974Z,76.90
2018-09-09T07:19:26.449Z,77.00
2018-09-09T07:21:54.960Z,76.90
2018-09-09T07:24:23.448Z,76.90
2018-09-09T07:26:51.959Z,77.10
2018-09-09T07:29:20.454Z,77.10
2018-09-09T07:31:49.030Z,77.10
2018-09-09T07:34:17.974Z,77.30
2018-09-09T07:36:46.473Z,77.30
2018-09-09T07:39:15.162Z,77.30
2018-09-09T07:41:43.708Z,77.10
2018-09-09T07:44:12.346Z,77.30
2018-09-09T07:46:40.868Z,77.20
2018-09-09T07:49:09.597Z,78.00
2018-09-09T07:51:38.124Z,77.80
2018-09-09T07:54:06.767Z,77.60
2018-09-09T07:56:35.559Z,77.50
2018-09-09T07:59:04.220Z,78.40
2018-09-09T08:01:33.331Z,78.10
2018-09-09T08:04:01.873Z,78.40
2018-09-09T08:06:30.415Z,78.50
2018-09-09T08:08:58.963Z,78.70
2018-09-09T08:11:44.093Z,78.60
2018-09-09T08:14:12.663Z,78.50
2018-09-09T08:16:41.188Z,78.80
2018-09-09T08:19:09.747Z,78.30
2018-09-09T08:21:38.274Z,78.70
2018-09-09T08:24:06.831Z,78.60
2018-09-09T08:26:35.378Z,78.60
2018-09-09T08:29:04.129Z,78.50
2018-09-09T08:31:32.683Z,78.20
2018-09-09T08:34:01.228Z,78.40
2018-09-09T08:36:29.766Z,78.20
2018-09-09T08:38:58.329Z,78.10
2018-09-09T08:41:27.003Z,78.20
2018-09-09T08:43:55.590Z,78.10
2018-09-09T08:46:24.284Z,78.00
2018-09-09T08:48:52.904Z,77.90
2018-09-09T08:51:21.453Z,78.70
2018-09-09T08:53:49.999Z,78.10
2018-09-09T08:56:18.531Z,77.90
2018-09-09T08:58:47.098Z,77.70
2018-09-09T09:01:15.624Z,77.40
2018-09-09T09:03:44.186Z,77.10
2018-09-09T09:06:12.709Z,76.80
2018-09-09T09:08:41.495Z,76.90
2018-09-09T09:11:10.054Z,76.70
2018-09-09T09:13:38.662Z,76.70
2018-09-09T09:16:07.225Z,76.80
2018-09-09T09:18:35.836Z,76.90
2018-09-09T09:21:04.356Z,77.30
2018-09-09T09:23:32.901Z,77.20
2018-09-09T09:26:01.389Z,77.20
2018-09-09T09:28:29.894Z,77.40
2018-09-09T09:30:58.381Z,77.10
2018-09-09T09:33:26.924Z,77.10
2018-09-09T09:35:55.702Z,76.70
2018-09-09T09:38:24.280Z,76.60
2018-09-09T09:40:53.285Z,77.30
2018-09-09T09:43:21.812Z,76.30
2018-09-09T09:45:50.477Z,76.30
2018-09-09T09:48:18.982Z,76.20
2018-09-09T09:50:47.544Z,76.50
2018-09-09T09:53:16.089Z,76.30
2018-09-09T09:55:44.583Z,76.00
2018-09-09T09:58:13.066Z,76.10
2018-09-09T10:00:47.023Z,76.20
2018-09-09T10:03:15.536Z,75.90
2018-09-09T10:05:44.038Z,75.80
2018-09-09T10:08:12.516Z,75.50
2018-09-09T10:10:41.028Z,75.30
2018-09-09T10:13:09.515Z,75.10
2018-09-09T10:15:38.024Z,75.10
2018-09-09T10:18:06.531Z,74.70
2018-09-09T10:20:35.029Z,74.10
2018-09-09T10:23:03.524Z,74.10
2018-09-09T10:25:32.070Z,73.90
2018-09-09T10:28:00.781Z,73.70
2018-09-09T10:30:29.492Z,73.00
2018-09-09T10:32:58.002Z,72.50
2018-09-09T10:35:26.867Z,72.50
2018-09-09T10:37:55.362Z,72.60
2018-09-09T10:40:24.231Z,72.30
2018-09-09T10:42:52.714Z,71.80
2018-09-09T10:45:21.251Z,71.10
2018-09-09T10:47:49.742Z,69.90
2018-09-09T10:50:18.270Z,69.60
2018-09-09T10:52:46.749Z,68.80
2018-09-09T10:55:15.323Z,67.70
2018-09-09T10:57:43.811Z,67.50
2018-09-09T11:00:12.348Z,66.80
2018-09-09T11:02:40.838Z,65.70
2018-09-09T11:05:09.380Z,65.40
2018-09-09T11:07:37.950Z,65.70
2018-09-09T11:10:06.505Z,65.70
2018-09-09T11:12:35.362Z,65.40
2018-09-09T11:15:03.943Z,63.80
2018-09-09T11:17:32.442Z,64.00
2018-09-09T11:20:00.949Z,64.50
2018-09-09T11:22:29.948Z,64.60
2018-09-09T11:24:58.442Z,65.70
2018-09-09T11:27:27.330Z,66.30
2018-09-09T11:29:55.868Z,67.40
2018-09-09T11:32:24.376Z,67.80
2018-09-09T11:34:52.889Z,68.30
2018-09-09T11:37:21.459Z,68.20
2018-09-09T11:39:49.989Z,68.30
2018-09-09T11:42:18.481Z,68.60
2018-09-09T11:44:47.017Z,68.20
2018-09-09T11:47:15.514Z,67.70
2018-09-09T11:49:44.050Z,67.10
2018-09-09T11:52:12.589Z,67.20
2018-09-09T11:54:41.094Z,67.20
2018-09-09T11:57:09.672Z,66.70
2018-09-09T11:59:38.203Z,66.90
2018-09-09T12:02:06.833Z,67.20
2018-09-09T12:04:35.266Z,67.00
2018-09-09T12:07:03.791Z,67.10
2018-09-09T12:09:32.278Z,67.20
2018-09-09T12:12:00.775Z,67.00
2018-09-09T12:14:29.248Z,66.70
2018-09-09T12:16:57.781Z,66.70
2018-09-09T12:19:26.277Z,67.60
2018-09-09T12:21:54.772Z,68.20
2018-09-09T12:24:23.317Z,68.20
2018-09-09T12:26:51.850Z,68.40
2018-09-09T12:29:20.650Z,68.20
2018-09-09T12:31:49.187Z,68.20
2018-09-09T12:34:17.681Z,67.90
2018-09-09T12:36:46.178Z,68.30
2018-09-09T12:39:14.661Z,68.20
2018-09-09T12:41:43.174Z,68.60
2018-09-09T12:44:17.126Z,68.50
2018-09-09T12:46:50.826Z,68.80
2018-09-09T12:49:19.334Z,68.80
2018-09-09T12:51:47.866Z,69.10
2018-09-09T12:54:16.360Z,68.80
2018-09-09T12:56:44.959Z,69.00
2018-09-09T12:59:13.446Z,69.20
2018-09-09T13:01:41.982Z,69.50
2018-09-09T13:04:10.475Z,69.50
2018-09-09T13:06:38.974Z,69.50
2018-09-09T13:09:08.804Z,69.20
2018-09-09T13:11:37.346Z,68.80
2018-09-09T13:14:05.950Z,69.00
2018-09-09T13:16:34.500Z,68.80
2018-09-09T13:19:02.987Z,68.50
2018-09-09T13:21:31.509Z,68.40
2018-09-09T13:23:59.994Z,69.00
2018-09-09T13:26:28.601Z,68.60
2018-09-09T13:28:57.096Z,68.90
2018-09-09T13:31:25.653Z,69.10
2018-09-09T13:33:54.174Z,68.60
2018-09-09T13:36:22.684Z,68.80
2018-09-09T13:38:51.301Z,68.90
2018-09-09T13:41:19.869Z,68.70
2018-09-09T13:43:48.385Z,68.70
2018-09-09T13:46:16.933Z,68.20
2018-09-09T13:48:45.473Z,68.60
2018-09-09T13:51:13.996Z,68.20
2018-09-09T13:53:42.529Z,67.70
2018-09-09T13:56:11.062Z,68.10
2018-09-09T13:58:39.550Z,68.40
2018-09-09T14:01:08.038Z,68.00
2018-09-09T14:03:36.578Z,68.20
2018-09-09T14:06:05.078Z,68.40
2018-09-09T14:08:33.599Z,68.40
2018-09-09T14:11:02.090Z,68.50
2018-09-09T14:13:30.682Z,68.80
2018-09-09T14:15:59.213Z,68.50
2018-09-09T14:18:27.725Z,68.70
2018-09-09T14:20:56.203Z,68.60
2018-09-09T14:23:24.698Z,68.40
2018-09-09T14:25:53.189Z,67.90
2018-09-09T14:28:21.730Z,67.60
2018-09-09T14:30:50.343Z,68.00
2018-09-09T14:33:18.947Z,68.70
2018-09-09T14:35:47.477Z,68.70
2018-09-09T14:38:16.026Z,68.70
2018-09-09T14:40:44.562Z,68.70
2018-09-09T14:43:13.172Z,68.50
2018-09-09T14:45:41.707Z,68.60
2018-09-09T14:48:10.276Z,68.70
2018-09-09T14:50:38.805Z,68.60
2018-09-09T14:53:07.460Z,68.50
2018-09-09T14:55:35.926Z,68.50
2018-09-09T14:58:04.499Z,68.50
2018-09-09T15:00:33.064Z,68.20
2018-09-09T15:03:01.641Z,67.50
2018-09-09T15:05:30.212Z,68.20
2018-09-09T15:07:58.782Z,68.10
2018-09-09T15:10:27.306Z,67.50
2018-09-09T15:12:55.843Z,67.30
2018-09-09T15:15:24.385Z,67.60
2018-09-09T15:17:52.943Z,68.10
2018-09-09T15:20:21.507Z,68.20
2018-09-09T15:22:50.061Z,68.10
2018-09-09T15:25:18.585Z,67.90
2018-09-09T15:27:47.162Z,68.20
2018-09-09T15:30:15.691Z,68.20
2018-09-09T15:32:44.266Z,67.90
2018-09-09T15:35:12.801Z,68.50
2018-09-09T15:37:41.353Z,68.20
2018-09-09T15:40:09.896Z,68.00
2018-09-09T15:42:38.441Z,68.00
2018-09-09T15:45:07.029Z,67.60
2018-09-09T15:47:35.600Z,68.00
2018-09-09T15:50:04.219Z,68.20
2018-09-09T15:52:32.761Z,67.20
2018-09-09T15:55:01.335Z,67.60
2018-09-09T15:57:29.858Z,67.50
2018-09-09T15:59:58.505Z,68.10
2018-09-09T16:02:27.040Z,68.00
2018-09-09T16:04:55.611Z,69.10
2018-09-09T16:07:24.220Z,68.80
2018-09-09T16:09:52.751Z,68.70
2018-09-09T16:12:21.287Z,69.10
2018-09-09T16:14:49.846Z,69.60
2018-09-09T16:17:18.368Z,69.40
2018-09-09T16:19:46.946Z,69.80
2018-09-09T16:22:15.485Z,69.70
2018-09-09T16:24:44.032Z,69.50
2018-09-09T16:27:12.588Z,70.20
2018-09-09T16:29:41.269Z,69.70
2018-09-09T16:32:09.866Z,69.70
2018-09-09T16:34:38.433Z,70.70
2018-09-09T16:37:06.997Z,70.60
2018-09-09T16:39:35.615Z,70.20
2018-09-09T16:42:04.151Z,70.40
2018-09-09T16:44:32.764Z,70.80
2018-09-09T16:47:01.325Z,70.40
2018-09-09T16:49:29.884Z,70.70
2018-09-09T16:51:58.433Z,70.70
2018-09-09T16:54:26.979Z,71.00
2018-09-09T16:56:55.505Z,70.90
2018-09-09T16:59:24.068Z,71.00
2018-09-09T17:01:52.642Z,70.90
2018-09-09T17:04:21.218Z,71.10
2018-09-09T17:06:49.743Z,71.20
2018-09-09T17:09:18.269Z,71.20
2018-09-09T17:11:46.814Z,71.30
2018-09-09T17:14:15.436Z,71.30
2018-09-09T17:16:43.943Z,71.20
2018-09-09T17:19:12.505Z,71.30
2018-09-09T17:21:41.036Z,71.30
2018-09-09T17:24:09.598Z,71.40
2018-09-09T17:26:38.128Z,71.40
2018-09-09T17:29:06.690Z,71.50
2018-09-09T17:31:35.216Z,71.60
2018-09-09T17:34:04.148Z,71.60
2018-09-09T17:36:32.690Z,71.70
2018-09-09T17:39:01.179Z,71.70
2018-09-09T17:41:29.694Z,71.80
2018-09-09T17:43:58.206Z,71.80
2018-09-09T17:46:26.709Z,71.90
2018-09-09T17:48:55.200Z,72.00
2018-09-09T17:51:23.712Z,72.60
2018-09-09T17:53:52.197Z,72.20
2018-09-09T17:56:20.803Z,72.20
2018-09-09T17:58:49.317Z,72.20
2018-09-09T18:01:17.858Z,72.40
2018-09-09T18:03:46.358Z,72.30
2018-09-09T18:06:14.877Z,72.30
2018-09-09T18:08:43.366Z,72.40
2018-09-09T18:11:11.934Z,72.50
2018-09-09T18:13:40.398Z,72.60
2018-09-09T18:16:09.773Z,72.50
2018-09-09T18:18:38.271Z,72.60
2018-09-09T18:21:06.831Z,72.70
2018-09-09T18:23:35.417Z,72.70
2018-09-09T18:26:03.923Z,72.80
2018-09-09T18:28:32.401Z,72.80
2018-09-09T18:31:00.913Z,72.80
2018-09-09T18:33:29.475Z,72.90
2018-09-09T18:35:58.058Z,73.10
2018-09-09T18:38:26.594Z,73.10
2018-09-09T18:40:55.123Z,73.90
2018-09-09T18:43:23.732Z,73.20
2018-09-09T18:45:52.267Z,73.10
2018-09-09T18:48:20.894Z,73.60
2018-09-09T18:50:49.506Z,73.30
2018-09-09T18:53:18.008Z,74.10
2018-09-09T18:55:46.516Z,73.40
2018-09-09T18:58:15.714Z,73.30
2018-09-09T19:00:44.248Z,73.30
2018-09-09T19:03:13.293Z,73.30
2018-09-09T19:05:41.865Z,73.50
2018-09-09T19:08:10.376Z,73.40
2018-09-09T19:10:38.941Z,73.40
2018-09-09T19:13:07.707Z,73.40
2018-09-09T19:15:36.318Z,73.40
2018-09-09T19:18:04.856Z,73.40
2018-09-09T19:20:33.443Z,73.50
2018-09-09T19:23:02.369Z,73.60
2018-09-09T19:25:30.908Z,73.50
2018-09-09T19:27:59.414Z,73.50
2018-09-09T19:30:27.938Z,73.60
2018-09-09T19:32:56.440Z,73.60
2018-09-09T19:35:24.968Z,73.50
2018-09-09T19:37:53.501Z,73.50
2018-09-09T19:40:21.981Z,73.50
2018-09-09T19:42:50.500Z,73.60
2018-09-09T19:45:19.055Z,73.60
2018-09-09T19:47:47.581Z,73.70
2018-09-09T19:50:16.075Z,73.60
2018-09-09T19:52:44.901Z,73.60
2018-09-09T19:55:13.423Z,73.70
2018-09-09T19:57:42.049Z,73.70
2018-09-09T20:00:10.651Z,73.70
2018-09-09T20:02:39.327Z,73.60
2018-09-09T20:05:07.918Z,73.70
2018-09-09T20:07:36.494Z,73.60
2018-09-09T20:10:05.131Z,73.60
2018-09-09T20:12:33.938Z,73.60
2018-09-09T20:15:02.480Z,73.60
2018-09-09T20:17:31.030Z,73.50
2018-09-09T20:19:59.562Z,73.60
2018-09-09T20:22:28.108Z,73.60
2018-09-09T20:24:56.761Z,73.60
2018-09-09T20:27:25.448Z,73.50
2018-09-09T20:29:54.080Z,73.50
2018-09-09T20:32:22.680Z,73.50
2018-09-09T20:34:51.213Z,73.50
2018-09-09T20:37:19.749Z,73.70
2018-09-09T20:39:48.283Z,73.50
2018-09-09T20:42:16.828Z,73.60
2018-09-09T20:44:45.340Z,73.60
2018-09-09T20:47:14.059Z,73.70
2018-09-09T20:49:42.727Z,73.60
2018-09-09T20:52:11.497Z,73.70
2018-09-09T20:54:40.012Z,73.70
2018-09-09T20:57:08.570Z,73.80
2018-09-09T20:59:37.101Z,73.80
2018-09-09T21:02:05.694Z,73.80
2018-09-09T21:04:34.274Z,73.80
2018-09-09T21:07:02.812Z,73.70
2018-09-09T21:09:31.510Z,73.70
2018-09-09T21:12:00.031Z,73.60
2018-09-09T21:14:28.593Z,73.70
2018-09-09T21:16:57.161Z,73.70
2018-09-09T21:19:25.683Z,73.80
2018-09-09T21:21:54.257Z,73.90
2018-09-09T21:24:22.836Z,73.90
2018-09-09T21:26:51.360Z,73.90
2018-09-09T21:29:20.000Z,73.90
2018-09-09T21:31:48.568Z,73.80
2018-09-09T21:34:17.105Z,73.80
2018-09-09T21:36:45.635Z,73.80
2018-09-09T21:39:14.206Z,73.90
2018-09-09T21:41:42.794Z,73.90
2018-09-09T21:44:11.352Z,74.00
2018-09-09T21:46:39.880Z,74.10
2018-09-09T21:49:08.429Z,74.10
2018-09-09T21:51:36.954Z,74.20
2018-09-09T21:54:05.901Z,74.20
2018-09-09T21:56:34.421Z,73.60
2018-09-09T21:59:02.971Z,74.20
2018-09-09T22:01:36.765Z,74.20
2018-09-09T22:04:05.337Z,74.20
2018-09-09T22:06:33.860Z,74.30
2018-09-09T22:09:02.501Z,74.20
2018-09-09T22:11:31.029Z,74.20
2018-09-09T22:13:59.598Z,74.30
2018-09-09T22:16:28.185Z,74.40
2018-09-09T22:18:56.722Z,74.40
2018-09-09T22:21:25.285Z,74.50
2018-09-09T22:23:53.874Z,74.60
2018-09-09T22:26:22.390Z,74.60
2018-09-09T22:28:50.953Z,74.70
2018-09-09T22:31:19.475Z,74.70
2018-09-09T22:33:48.001Z,74.90
2018-09-09T22:36:16.469Z,74.80
2018-09-09T22:38:44.975Z,74.80
2018-09-09T22:41:13.447Z,75.00
2018-09-09T22:43:41.963Z,74.90
2018-09-09T22:46:10.467Z,74.70
2018-09-09T22:48:38.986Z,75.00
2018-09-09T22:51:07.473Z,75.10
2018-09-09T22:53:35.967Z,75.30
2018-09-09T22:56:04.487Z,75.30
2018-09-09T22:58:33.046Z,75.40
2018-09-09T23:01:01.575Z,75.00
2018-09-09T23:03:30.094Z,75.00
2018-09-09T23:05:58.581Z,75.00
2018-09-09T23:08:27.070Z,75.20
2018-09-09T23:10:55.562Z,75.60
2018-09-09T23:13:24.078Z,75.20
2018-09-09T23:15:52.656Z,75.10
2018-09-09T23:18:21.209Z,75.20
2018-09-09T23:20:49.697Z,75.20
2018-09-09T23:23:18.194Z,75.00
2018-09-09T23:25:46.679Z,75.00
2018-09-09T23:28:15.156Z,74.90
2018-09-09T23:30:43.693Z,74.90
2018-09-09T23:33:12.237Z,74.80
2018-09-09T23:35:40.785Z,74.90
2018-09-09T23:38:09.348Z,74.90
2018-09-09T23:40:37.911Z,75.00
2018-09-09T23:43:06.768Z,74.70
2018-09-09T23:45:35.305Z,74.70
2018-09-09T23:48:03.858Z,74.60
2018-09-09T23:50:32.422Z,74.60
2018-09-09T23:53:00.942Z,74.50
2018-09-09T23:55:29.499Z,74.60
2018-09-09T23:57:58.030Z,74.60
